sensor_id;sensor_type;location;lat;lon;timestamp;P1;durP1;ratioP1;P2;durP2;ratioP2
55641;SDS011;41509;53.108;6.100;2023-11-21T00:02:00;10.00;;;3.35;;
55641;SDS011;41509;53.108;6.100;2023-11-21T00:04:26;11.13;;;3.10;;
55641;SDS011;41509;53.108;6.100;2023-11-21T00:06:54;13.98;;;3.00;;
55641;SDS011;41509;53.108;6.100;2023-11-21T00:09:22;13.00;;;2.58;;
55641;SDS011;41509;53.108;6.100;2023-11-21T00:11:48;12.20;;;2.97;;
55641;SDS011;41509;53.108;6.100;2023-11-21T00:14:14;12.03;;;3.00;;
55641;SDS011;41509;53.108;6.100;2023-11-21T00:16:43;9.43;;;3.22;;
55641;SDS011;41509;53.108;6.100;2023-11-21T00:19:08;13.53;;;2.90;;
55641;SDS011;41509;53.108;6.100;2023-11-21T00:21:34;8.60;;;3.20;;
55641;SDS011;41509;53.108;6.100;2023-11-21T00:23:59;11.17;;;2.70;;
55641;SDS011;41509;53.108;6.100;2023-11-21T00:26:25;8.93;;;3.23;;
55641;SDS011;41509;53.108;6.100;2023-11-21T00:28:51;8.17;;;2.90;;
55641;SDS011;41509;53.108;6.100;2023-11-21T00:31:17;9.88;;;3.08;;
55641;SDS011;41509;53.108;6.100;2023-11-21T00:33:46;15.57;;;2.90;;
55641;SDS011;41509;53.108;6.100;2023-11-21T00:36:15;8.35;;;3.03;;
55641;SDS011;41509;53.108;6.100;2023-11-21T00:38:42;12.23;;;3.45;;
55641;SDS011;41509;53.108;6.100;2023-11-21T00:41:08;8.83;;;2.30;;
55641;SDS011;41509;53.108;6.100;2023-11-21T00:43:37;15.98;;;2.92;;
55641;SDS011;41509;53.108;6.100;2023-11-21T00:46:06;9.50;;;2.80;;
55641;SDS011;41509;53.108;6.100;2023-11-21T00:48:37;8.90;;;3.40;;
55641;SDS011;41509;53.108;6.100;2023-11-21T00:51:06;10.23;;;3.10;;
55641;SDS011;41509;53.108;6.100;2023-11-21T00:53:35;10.45;;;2.75;;
55641;SDS011;41509;53.108;6.100;2023-11-21T00:56:04;7.03;;;3.00;;
55641;SDS011;41509;53.108;6.100;2023-11-21T01:00:56;9.40;;;2.72;;
55641;SDS011;41509;53.108;6.100;2023-11-21T01:03:25;7.55;;;2.90;;
55641;SDS011;41509;53.108;6.100;2023-11-21T01:05:56;11.45;;;3.42;;
55641;SDS011;41509;53.108;6.100;2023-11-21T01:08:21;13.23;;;2.97;;
55641;SDS011;41509;53.108;6.100;2023-11-21T01:10:49;15.85;;;3.08;;
55641;SDS011;41509;53.108;6.100;2023-11-21T01:13:15;7.90;;;2.45;;
55641;SDS011;41509;53.108;6.100;2023-11-21T01:15:41;10.38;;;3.05;;
55641;SDS011;41509;53.108;6.100;2023-11-21T01:18:07;10.70;;;3.50;;
55641;SDS011;41509;53.108;6.100;2023-11-21T01:20:33;9.05;;;2.95;;
55641;SDS011;41509;53.108;6.100;2023-11-21T01:25:25;7.35;;;2.90;;
55641;SDS011;41509;53.108;6.100;2023-11-21T01:27:55;11.90;;;3.38;;
55641;SDS011;41509;53.108;6.100;2023-11-21T01:30:22;7.70;;;3.13;;
55641;SDS011;41509;53.108;6.100;2023-11-21T01:32:48;15.70;;;3.28;;
55641;SDS011;41509;53.108;6.100;2023-11-21T01:35:14;13.35;;;3.70;;
55641;SDS011;41509;53.108;6.100;2023-11-21T01:37:39;10.85;;;2.95;;
55641;SDS011;41509;53.108;6.100;2023-11-21T01:40:05;9.80;;;3.10;;
55641;SDS011;41509;53.108;6.100;2023-11-21T01:42:35;13.02;;;3.72;;
55641;SDS011;41509;53.108;6.100;2023-11-21T01:45:01;7.67;;;3.20;;
55641;SDS011;41509;53.108;6.100;2023-11-21T01:47:33;7.55;;;2.70;;
55641;SDS011;41509;53.108;6.100;2023-11-21T01:50:01;9.88;;;2.80;;
55641;SDS011;41509;53.108;6.100;2023-11-21T01:52:29;7.15;;;3.22;;
55641;SDS011;41509;53.108;6.100;2023-11-21T01:55:00;10.15;;;3.20;;
55641;SDS011;41509;53.108;6.100;2023-11-21T01:57:27;6.93;;;3.10;;
55641;SDS011;41509;53.108;6.100;2023-11-21T01:59:54;14.25;;;2.97;;
55641;SDS011;41509;53.108;6.100;2023-11-21T02:02:23;6.68;;;2.60;;
55641;SDS011;41509;53.108;6.100;2023-11-21T02:04:49;10.45;;;3.42;;
55641;SDS011;41509;53.108;6.100;2023-11-21T02:07:15;7.83;;;2.77;;
55641;SDS011;41509;53.108;6.100;2023-11-21T02:09:44;10.07;;;2.90;;
55641;SDS011;41509;53.108;6.100;2023-11-21T02:12:10;7.45;;;3.13;;
55641;SDS011;41509;53.108;6.100;2023-11-21T02:14:36;9.50;;;2.88;;
55641;SDS011;41509;53.108;6.100;2023-11-21T02:17:05;4.75;;;2.75;;
55641;SDS011;41509;53.108;6.100;2023-11-21T02:19:32;5.55;;;2.38;;
55641;SDS011;41509;53.108;6.100;2023-11-21T02:21:58;6.65;;;3.03;;
55641;SDS011;41509;53.108;6.100;2023-11-21T02:24:28;5.82;;;2.50;;
55641;SDS011;41509;53.108;6.100;2023-11-21T02:26:53;9.63;;;3.07;;
55641;SDS011;41509;53.108;6.100;2023-11-21T02:29:20;11.88;;;2.67;;
55641;SDS011;41509;53.108;6.100;2023-11-21T02:31:53;6.00;;;2.50;;
55641;SDS011;41509;53.108;6.100;2023-11-21T02:34:20;6.07;;;2.22;;
55641;SDS011;41509;53.108;6.100;2023-11-21T02:39:20;8.57;;;2.88;;
55641;SDS011;41509;53.108;6.100;2023-11-21T02:41:52;5.93;;;2.55;;
55641;SDS011;41509;53.108;6.100;2023-11-21T02:44:19;6.45;;;2.70;;
55641;SDS011;41509;53.108;6.100;2023-11-21T02:46:45;7.40;;;3.17;;
55641;SDS011;41509;53.108;6.100;2023-11-21T02:51:37;8.55;;;2.50;;
55641;SDS011;41509;53.108;6.100;2023-11-21T02:54:05;7.00;;;2.70;;
55641;SDS011;41509;53.108;6.100;2023-11-21T02:56:32;9.82;;;3.35;;
55641;SDS011;41509;53.108;6.100;2023-11-21T02:58:59;6.55;;;3.30;;
55641;SDS011;41509;53.108;6.100;2023-11-21T03:01:25;8.38;;;3.05;;
55641;SDS011;41509;53.108;6.100;2023-11-21T03:03:55;6.30;;;2.75;;
55641;SDS011;41509;53.108;6.100;2023-11-21T03:08:47;8.52;;;2.72;;
55641;SDS011;41509;53.108;6.100;2023-11-21T03:11:13;5.57;;;2.50;;
55641;SDS011;41509;53.108;6.100;2023-11-21T03:13:42;7.05;;;2.22;;
55641;SDS011;41509;53.108;6.100;2023-11-21T03:16:11;4.75;;;2.58;;
55641;SDS011;41509;53.108;6.100;2023-11-21T03:18:43;6.72;;;2.80;;
55641;SDS011;41509;53.108;6.100;2023-11-21T03:21:09;4.82;;;2.38;;
55641;SDS011;41509;53.108;6.100;2023-11-21T03:23:35;4.53;;;2.53;;
55641;SDS011;41509;53.108;6.100;2023-11-21T03:28:30;5.90;;;2.53;;
55641;SDS011;41509;53.108;6.100;2023-11-21T03:30:56;7.13;;;3.07;;
55641;SDS011;41509;53.108;6.100;2023-11-21T03:33:22;7.85;;;2.53;;
55641;SDS011;41509;53.108;6.100;2023-11-21T03:35:48;6.53;;;2.90;;
55641;SDS011;41509;53.108;6.100;2023-11-21T03:38:16;5.28;;;2.83;;
55641;SDS011;41509;53.108;6.100;2023-11-21T03:40:44;7.03;;;2.65;;
55641;SDS011;41509;53.108;6.100;2023-11-21T03:43:10;11.60;;;3.35;;
55641;SDS011;41509;53.108;6.100;2023-11-21T03:45:36;4.60;;;2.60;;
55641;SDS011;41509;53.108;6.100;2023-11-21T03:48:02;7.68;;;2.90;;
55641;SDS011;41509;53.108;6.100;2023-11-21T03:50:28;9.10;;;3.80;;
55641;SDS011;41509;53.108;6.100;2023-11-21T03:52:54;7.88;;;3.30;;
55641;SDS011;41509;53.108;6.100;2023-11-21T03:55:20;8.27;;;3.40;;
55641;SDS011;41509;53.108;6.100;2023-11-21T03:57:45;11.13;;;3.67;;
55641;SDS011;41509;53.108;6.100;2023-11-21T04:00:11;11.10;;;3.77;;
55641;SDS011;41509;53.108;6.100;2023-11-21T04:02:37;11.52;;;4.30;;
55641;SDS011;41509;53.108;6.100;2023-11-21T04:05:05;10.45;;;3.45;;
55641;SDS011;41509;53.108;6.100;2023-11-21T04:07:34;10.05;;;3.78;;
55641;SDS011;41509;53.108;6.100;2023-11-21T04:10:02;12.38;;;4.30;;
55641;SDS011;41509;53.108;6.100;2023-11-21T04:12:29;10.68;;;3.95;;
55641;SDS011;41509;53.108;6.100;2023-11-21T04:14:54;6.27;;;3.60;;
55641;SDS011;41509;53.108;6.100;2023-11-21T04:17:20;15.00;;;4.10;;
55641;SDS011;41509;53.108;6.100;2023-11-21T04:19:48;12.63;;;3.85;;
55641;SDS011;41509;53.108;6.100;2023-11-21T04:22:14;10.67;;;3.67;;
55641;SDS011;41509;53.108;6.100;2023-11-21T04:24:42;10.57;;;4.22;;
55641;SDS011;41509;53.108;6.100;2023-11-21T04:27:10;10.35;;;3.25;;
55641;SDS011;41509;53.108;6.100;2023-11-21T04:29:35;10.17;;;3.80;;
55641;SDS011;41509;53.108;6.100;2023-11-21T04:32:01;9.27;;;3.43;;
55641;SDS011;41509;53.108;6.100;2023-11-21T04:34:27;10.95;;;4.25;;
55641;SDS011;41509;53.108;6.100;2023-11-21T04:36:56;9.30;;;4.57;;
55641;SDS011;41509;53.108;6.100;2023-11-21T04:39:22;9.98;;;5.32;;
55641;SDS011;41509;53.108;6.100;2023-11-21T04:41:50;12.73;;;4.78;;
55641;SDS011;41509;53.108;6.100;2023-11-21T04:44:16;14.77;;;5.40;;
55641;SDS011;41509;53.108;6.100;2023-11-21T04:46:42;13.93;;;6.15;;
55641;SDS011;41509;53.108;6.100;2023-11-21T04:49:07;14.80;;;5.17;;
55641;SDS011;41509;53.108;6.100;2023-11-21T04:51:33;12.13;;;5.88;;
55641;SDS011;41509;53.108;6.100;2023-11-21T04:53:59;22.90;;;6.43;;
55641;SDS011;41509;53.108;6.100;2023-11-21T04:56:25;18.02;;;6.28;;
55641;SDS011;41509;53.108;6.100;2023-11-21T04:58:51;12.63;;;5.18;;
55641;SDS011;41509;53.108;6.100;2023-11-21T05:01:24;17.75;;;6.47;;
55641;SDS011;41509;53.108;6.100;2023-11-21T05:03:49;15.57;;;5.53;;
55641;SDS011;41509;53.108;6.100;2023-11-21T05:06:15;13.67;;;5.90;;
55641;SDS011;41509;53.108;6.100;2023-11-21T05:08:43;16.15;;;5.97;;
55641;SDS011;41509;53.108;6.100;2023-11-21T05:11:09;18.43;;;6.63;;
55641;SDS011;41509;53.108;6.100;2023-11-21T05:13:36;18.98;;;5.60;;
55641;SDS011;41509;53.108;6.100;2023-11-21T05:16:02;16.85;;;6.30;;
55641;SDS011;41509;53.108;6.100;2023-11-21T05:18:32;16.90;;;6.00;;
55641;SDS011;41509;53.108;6.100;2023-11-21T05:21:02;17.40;;;7.20;;
55641;SDS011;41509;53.108;6.100;2023-11-21T05:23:28;15.38;;;6.45;;
55641;SDS011;41509;53.108;6.100;2023-11-21T05:25:53;16.33;;;6.88;;
55641;SDS011;41509;53.108;6.100;2023-11-21T05:28:25;18.25;;;6.38;;
55641;SDS011;41509;53.108;6.100;2023-11-21T05:30:50;22.52;;;7.47;;
55641;SDS011;41509;53.108;6.100;2023-11-21T05:33:16;12.97;;;4.73;;
55641;SDS011;41509;53.108;6.100;2023-11-21T05:35:42;17.58;;;6.90;;
55641;SDS011;41509;53.108;6.100;2023-11-21T05:38:10;11.43;;;4.95;;
55641;SDS011;41509;53.108;6.100;2023-11-21T05:40:36;14.77;;;5.65;;
55641;SDS011;41509;53.108;6.100;2023-11-21T05:43:02;10.05;;;4.60;;
55641;SDS011;41509;53.108;6.100;2023-11-21T05:45:30;21.33;;;7.00;;
55641;SDS011;41509;53.108;6.100;2023-11-21T05:47:55;14.07;;;4.90;;
55641;SDS011;41509;53.108;6.100;2023-11-21T05:50:22;15.55;;;5.30;;
55641;SDS011;41509;53.108;6.100;2023-11-21T05:52:48;12.20;;;5.10;;
55641;SDS011;41509;53.108;6.100;2023-11-21T05:55:16;16.60;;;4.85;;
55641;SDS011;41509;53.108;6.100;2023-11-21T05:57:43;16.10;;;5.23;;
55641;SDS011;41509;53.108;6.100;2023-11-21T06:00:12;10.55;;;4.38;;
55641;SDS011;41509;53.108;6.100;2023-11-21T06:02:47;11.13;;;4.75;;
55641;SDS011;41509;53.108;6.100;2023-11-21T06:05:17;9.90;;;4.68;;
55641;SDS011;41509;53.108;6.100;2023-11-21T06:07:44;16.85;;;5.43;;
55641;SDS011;41509;53.108;6.100;2023-11-21T06:10:10;16.37;;;4.83;;
55641;SDS011;41509;53.108;6.100;2023-11-21T06:12:40;11.70;;;5.03;;
55641;SDS011;41509;53.108;6.100;2023-11-21T06:15:08;12.32;;;5.13;;
55641;SDS011;41509;53.108;6.100;2023-11-21T06:17:35;13.82;;;5.25;;
55641;SDS011;41509;53.108;6.100;2023-11-21T06:20:04;15.57;;;5.55;;
55641;SDS011;41509;53.108;6.100;2023-11-21T06:22:41;14.43;;;5.18;;
55641;SDS011;41509;53.108;6.100;2023-11-21T06:25:08;15.20;;;5.60;;
55641;SDS011;41509;53.108;6.100;2023-11-21T06:30:03;10.73;;;4.93;;
55641;SDS011;41509;53.108;6.100;2023-11-21T06:32:31;10.45;;;5.00;;
55641;SDS011;41509;53.108;6.100;2023-11-21T06:34:57;11.57;;;5.13;;
55641;SDS011;41509;53.108;6.100;2023-11-21T06:37:29;15.40;;;5.40;;
55641;SDS011;41509;53.108;6.100;2023-11-21T06:39:55;15.82;;;5.10;;
55641;SDS011;41509;53.108;6.100;2023-11-21T06:42:23;20.20;;;6.63;;
55641;SDS011;41509;53.108;6.100;2023-11-21T06:44:52;20.45;;;6.78;;
55641;SDS011;41509;53.108;6.100;2023-11-21T06:47:31;12.10;;;5.45;;
55641;SDS011;41509;53.108;6.100;2023-11-21T06:49:58;19.67;;;6.30;;
55641;SDS011;41509;53.108;6.100;2023-11-21T06:52:24;15.35;;;6.07;;
55641;SDS011;41509;53.108;6.100;2023-11-21T06:54:50;13.73;;;6.17;;
55641;SDS011;41509;53.108;6.100;2023-11-21T06:57:15;19.27;;;7.30;;
55641;SDS011;41509;53.108;6.100;2023-11-21T06:59:41;19.13;;;7.13;;
55641;SDS011;41509;53.108;6.100;2023-11-21T07:02:09;18.63;;;8.15;;
55641;SDS011;41509;53.108;6.100;2023-11-21T07:04:37;13.27;;;6.18;;
55641;SDS011;41509;53.108;6.100;2023-11-21T07:07:03;11.98;;;5.88;;
55641;SDS011;41509;53.108;6.100;2023-11-21T07:09:29;14.98;;;5.47;;
55641;SDS011;41509;53.108;6.100;2023-11-21T07:11:56;16.52;;;5.40;;
55641;SDS011;41509;53.108;6.100;2023-11-21T07:14:21;13.87;;;5.80;;
55641;SDS011;41509;53.108;6.100;2023-11-21T07:17:05;13.95;;;5.35;;
55641;SDS011;41509;53.108;6.100;2023-11-21T07:19:31;12.32;;;5.20;;
55641;SDS011;41509;53.108;6.100;2023-11-21T07:21:57;14.03;;;5.90;;
55641;SDS011;41509;53.108;6.100;2023-11-21T07:24:22;15.00;;;6.20;;
55641;SDS011;41509;53.108;6.100;2023-11-21T07:26:48;16.57;;;6.50;;
55641;SDS011;41509;53.108;6.100;2023-11-21T07:29:16;18.75;;;6.30;;
55641;SDS011;41509;53.108;6.100;2023-11-21T07:31:42;20.42;;;7.65;;
55641;SDS011;41509;53.108;6.100;2023-11-21T07:34:08;17.70;;;6.72;;
55641;SDS011;41509;53.108;6.100;2023-11-21T07:36:34;18.83;;;6.88;;
55641;SDS011;41509;53.108;6.100;2023-11-21T07:39:00;22.20;;;8.18;;
55641;SDS011;41509;53.108;6.100;2023-11-21T07:41:27;19.95;;;7.85;;
55641;SDS011;41509;53.108;6.100;2023-11-21T07:43:54;18.40;;;7.05;;
55641;SDS011;41509;53.108;6.100;2023-11-21T07:46:23;17.00;;;6.72;;
55641;SDS011;41509;53.108;6.100;2023-11-21T07:48:51;15.75;;;6.53;;
55641;SDS011;41509;53.108;6.100;2023-11-21T07:51:20;18.52;;;7.30;;
55641;SDS011;41509;53.108;6.100;2023-11-21T07:53:45;18.67;;;7.37;;
55641;SDS011;41509;53.108;6.100;2023-11-21T07:56:11;22.65;;;7.10;;
55641;SDS011;41509;53.108;6.100;2023-11-21T07:58:38;20.40;;;7.65;;
55641;SDS011;41509;53.108;6.100;2023-11-21T08:01:04;22.95;;;8.13;;
55641;SDS011;41509;53.108;6.100;2023-11-21T08:03:30;19.58;;;9.05;;
55641;SDS011;41509;53.108;6.100;2023-11-21T08:05:56;25.00;;;9.75;;
55641;SDS011;41509;53.108;6.100;2023-11-21T08:08:23;22.23;;;10.10;;
55641;SDS011;41509;53.108;6.100;2023-11-21T08:10:49;22.42;;;9.35;;
55641;SDS011;41509;53.108;6.100;2023-11-21T08:13:24;20.42;;;9.30;;
55641;SDS011;41509;53.108;6.100;2023-11-21T08:15:53;19.35;;;8.63;;
55641;SDS011;41509;53.108;6.100;2023-11-21T08:18:19;21.95;;;8.38;;
55641;SDS011;41509;53.108;6.100;2023-11-21T08:20:45;17.83;;;8.37;;
55641;SDS011;41509;53.108;6.100;2023-11-21T08:23:16;21.08;;;8.75;;
55641;SDS011;41509;53.108;6.100;2023-11-21T08:25:45;17.77;;;8.32;;
55641;SDS011;41509;53.108;6.100;2023-11-21T08:28:12;18.08;;;8.70;;
55641;SDS011;41509;53.108;6.100;2023-11-21T08:30:41;15.60;;;8.73;;
55641;SDS011;41509;53.108;6.100;2023-11-21T08:33:07;20.73;;;9.73;;
55641;SDS011;41509;53.108;6.100;2023-11-21T08:35:39;18.25;;;8.98;;
55641;SDS011;41509;53.108;6.100;2023-11-21T08:38:04;17.60;;;8.63;;
55641;SDS011;41509;53.108;6.100;2023-11-21T08:40:30;21.30;;;9.35;;
55641;SDS011;41509;53.108;6.100;2023-11-21T08:42:57;17.95;;;8.68;;
55641;SDS011;41509;53.108;6.100;2023-11-21T08:45:24;19.63;;;8.55;;
55641;SDS011;41509;53.108;6.100;2023-11-21T08:47:51;17.40;;;8.13;;
55641;SDS011;41509;53.108;6.100;2023-11-21T08:50:17;17.88;;;8.77;;
55641;SDS011;41509;53.108;6.100;2023-11-21T08:52:43;19.80;;;8.52;;
55641;SDS011;41509;53.108;6.100;2023-11-21T08:55:11;20.02;;;8.68;;
55641;SDS011;41509;53.108;6.100;2023-11-21T08:57:40;20.52;;;9.35;;
55641;SDS011;41509;53.108;6.100;2023-11-21T09:00:08;20.73;;;9.20;;
55641;SDS011;41509;53.108;6.100;2023-11-21T09:02:38;15.98;;;7.97;;
55641;SDS011;41509;53.108;6.100;2023-11-21T09:05:06;19.00;;;9.32;;
55641;SDS011;41509;53.108;6.100;2023-11-21T09:07:33;19.00;;;8.10;;
55641;SDS011;41509;53.108;6.100;2023-11-21T09:12:26;20.65;;;8.80;;
55641;SDS011;41509;53.108;6.100;2023-11-21T09:14:52;19.52;;;8.75;;
55641;SDS011;41509;53.108;6.100;2023-11-21T09:17:18;18.67;;;8.20;;
55641;SDS011;41509;53.108;6.100;2023-11-21T09:19:44;22.43;;;9.30;;
55641;SDS011;41509;53.108;6.100;2023-11-21T09:22:14;17.83;;;8.70;;
55641;SDS011;41509;53.108;6.100;2023-11-21T09:24:41;17.20;;;8.43;;
55641;SDS011;41509;53.108;6.100;2023-11-21T09:27:07;23.52;;;9.98;;
55641;SDS011;41509;53.108;6.100;2023-11-21T09:29:33;22.48;;;9.65;;
55641;SDS011;41509;53.108;6.100;2023-11-21T09:31:59;23.43;;;10.47;;
55641;SDS011;41509;53.108;6.100;2023-11-21T09:34:26;20.88;;;9.93;;
55641;SDS011;41509;53.108;6.100;2023-11-21T09:36:52;19.23;;;9.13;;
55641;SDS011;41509;53.108;6.100;2023-11-21T09:39:18;17.85;;;8.80;;
55641;SDS011;41509;53.108;6.100;2023-11-21T09:41:57;17.17;;;9.48;;
55641;SDS011;41509;53.108;6.100;2023-11-21T09:44:54;16.55;;;8.40;;
55641;SDS011;41509;53.108;6.100;2023-11-21T09:47:17;16.73;;;8.45;;
55641;SDS011;41509;53.108;6.100;2023-11-21T09:49:49;14.77;;;7.47;;
55641;SDS011;41509;53.108;6.100;2023-11-21T09:52:19;13.30;;;6.93;;
55641;SDS011;41509;53.108;6.100;2023-11-21T09:54:53;18.52;;;7.75;;
55641;SDS011;41509;53.108;6.100;2023-11-21T09:57:22;12.93;;;7.40;;
55641;SDS011;41509;53.108;6.100;2023-11-21T09:59:50;12.07;;;7.18;;
55641;SDS011;41509;53.108;6.100;2023-11-21T10:02:24;16.23;;;8.07;;
55641;SDS011;41509;53.108;6.100;2023-11-21T10:04:53;14.60;;;7.32;;
55641;SDS011;41509;53.108;6.100;2023-11-21T10:07:19;12.98;;;6.85;;
55641;SDS011;41509;53.108;6.100;2023-11-21T10:09:46;15.35;;;6.53;;
55641;SDS011;41509;53.108;6.100;2023-11-21T10:12:14;11.57;;;7.00;;
55641;SDS011;41509;53.108;6.100;2023-11-21T10:14:41;12.82;;;7.07;;
55641;SDS011;41509;53.108;6.100;2023-11-21T10:17:09;12.80;;;6.60;;
55641;SDS011;41509;53.108;6.100;2023-11-21T10:19:37;11.77;;;7.05;;
55641;SDS011;41509;53.108;6.100;2023-11-21T10:22:05;12.80;;;6.95;;
55641;SDS011;41509;53.108;6.100;2023-11-21T10:24:35;11.13;;;6.97;;
55641;SDS011;41509;53.108;6.100;2023-11-21T10:27:02;10.95;;;6.55;;
55641;SDS011;41509;53.108;6.100;2023-11-21T10:29:29;12.25;;;7.10;;
55641;SDS011;41509;53.108;6.100;2023-11-21T10:31:56;12.45;;;7.38;;
55641;SDS011;41509;53.108;6.100;2023-11-21T10:34:24;11.23;;;6.43;;
55641;SDS011;41509;53.108;6.100;2023-11-21T10:36:49;15.32;;;6.28;;
55641;SDS011;41509;53.108;6.100;2023-11-21T10:39:19;10.35;;;6.72;;
55641;SDS011;41509;53.108;6.100;2023-11-21T10:41:48;11.40;;;6.38;;
55641;SDS011;41509;53.108;6.100;2023-11-21T10:44:15;11.90;;;6.43;;
55641;SDS011;41509;53.108;6.100;2023-11-21T10:46:49;13.00;;;6.82;;
55641;SDS011;41509;53.108;6.100;2023-11-21T10:49:22;13.50;;;6.82;;
55641;SDS011;41509;53.108;6.100;2023-11-21T10:51:50;12.82;;;6.97;;
55641;SDS011;41509;53.108;6.100;2023-11-21T10:54:21;13.82;;;7.40;;
55641;SDS011;41509;53.108;6.100;2023-11-21T10:56:50;13.43;;;6.25;;
55641;SDS011;41509;53.108;6.100;2023-11-21T10:59:22;9.57;;;5.65;;
55641;SDS011;41509;53.108;6.100;2023-11-21T11:01:50;12.23;;;5.95;;
55641;SDS011;41509;53.108;6.100;2023-11-21T11:04:18;10.27;;;6.20;;
55641;SDS011;41509;53.108;6.100;2023-11-21T11:06:54;12.27;;;6.18;;
55641;SDS011;41509;53.108;6.100;2023-11-21T11:09:22;12.13;;;6.57;;
55641;SDS011;41509;53.108;6.100;2023-11-21T11:11:48;10.60;;;6.45;;
55641;SDS011;41509;53.108;6.100;2023-11-21T11:14:14;11.40;;;6.45;;
55641;SDS011;41509;53.108;6.100;2023-11-21T11:16:41;10.60;;;5.38;;
55641;SDS011;41509;53.108;6.100;2023-11-21T11:19:08;10.57;;;6.10;;
55641;SDS011;41509;53.108;6.100;2023-11-21T11:26:50;10.20;;;5.40;;
55641;SDS011;41509;53.108;6.100;2023-11-21T11:35:19;11.23;;;5.40;;
55641;SDS011;41509;53.108;6.100;2023-11-21T11:37:59;11.68;;;5.50;;
55641;SDS011;41509;53.108;6.100;2023-11-21T11:40:41;13.80;;;6.10;;
55641;SDS011;41509;53.108;6.100;2023-11-21T11:43:10;9.90;;;5.22;;
55641;SDS011;41509;53.108;6.100;2023-11-21T11:45:36;10.45;;;5.43;;
55641;SDS011;41509;53.108;6.100;2023-11-21T11:48:16;8.73;;;5.20;;
55641;SDS011;41509;53.108;6.100;2023-11-21T11:51:00;9.10;;;4.77;;
55641;SDS011;41509;53.108;6.100;2023-11-21T11:53:52;8.82;;;4.50;;
55641;SDS011;41509;53.108;6.100;2023-11-21T11:56:32;9.15;;;4.80;;
55641;SDS011;41509;53.108;6.100;2023-11-21T11:59:04;7.13;;;4.03;;
55641;SDS011;41509;53.108;6.100;2023-11-21T12:01:32;10.20;;;4.60;;
55641;SDS011;41509;53.108;6.100;2023-11-21T12:06:40;8.25;;;4.43;;
55641;SDS011;41509;53.108;6.100;2023-11-21T12:09:07;9.73;;;4.78;;
55641;SDS011;41509;53.108;6.100;2023-11-21T12:11:40;8.70;;;4.40;;
55641;SDS011;41509;53.108;6.100;2023-11-21T12:14:09;7.88;;;4.38;;
55641;SDS011;41509;53.108;6.100;2023-11-21T12:16:35;8.27;;;4.13;;
55641;SDS011;41509;53.108;6.100;2023-11-21T12:19:01;9.50;;;4.63;;
55641;SDS011;41509;53.108;6.100;2023-11-21T12:21:27;7.18;;;3.88;;
55641;SDS011;41509;53.108;6.100;2023-11-21T12:23:53;8.30;;;4.22;;
55641;SDS011;41509;53.108;6.100;2023-11-21T12:26:19;7.27;;;3.77;;
55641;SDS011;41509;53.108;6.100;2023-11-21T12:28:52;7.18;;;4.03;;
55641;SDS011;41509;53.108;6.100;2023-11-21T12:31:22;8.82;;;4.07;;
55641;SDS011;41509;53.108;6.100;2023-11-21T12:33:48;7.60;;;4.65;;
55641;SDS011;41509;53.108;6.100;2023-11-21T12:36:15;7.38;;;4.00;;
55641;SDS011;41509;53.108;6.100;2023-11-21T12:38:41;7.90;;;3.97;;
55641;SDS011;41509;53.108;6.100;2023-11-21T12:41:09;8.68;;;3.95;;
55641;SDS011;41509;53.108;6.100;2023-11-21T12:43:35;6.63;;;3.92;;
55641;SDS011;41509;53.108;6.100;2023-11-21T12:46:11;8.27;;;4.18;;
55641;SDS011;41509;53.108;6.100;2023-11-21T12:48:39;7.80;;;4.18;;
55641;SDS011;41509;53.108;6.100;2023-11-21T12:51:09;8.20;;;4.22;;
55641;SDS011;41509;53.108;6.100;2023-11-21T12:53:36;7.47;;;4.55;;
55641;SDS011;41509;53.108;6.100;2023-11-21T12:56:15;7.18;;;4.03;;
55641;SDS011;41509;53.108;6.100;2023-11-21T12:58:45;7.05;;;4.18;;
55641;SDS011;41509;53.108;6.100;2023-11-21T13:01:15;7.30;;;4.22;;
55641;SDS011;41509;53.108;6.100;2023-11-21T13:03:47;6.20;;;3.70;;
55641;SDS011;41509;53.108;6.100;2023-11-21T13:06:16;8.77;;;4.78;;
55641;SDS011;41509;53.108;6.100;2023-11-21T13:08:43;8.82;;;4.43;;
55641;SDS011;41509;53.108;6.100;2023-11-21T13:11:13;7.90;;;4.28;;
55641;SDS011;41509;53.108;6.100;2023-11-21T13:13:40;8.25;;;4.32;;
55641;SDS011;41509;53.108;6.100;2023-11-21T13:16:08;7.63;;;3.97;;
55641;SDS011;41509;53.108;6.100;2023-11-21T13:18:35;7.78;;;3.92;;
55641;SDS011;41509;53.108;6.100;2023-11-21T13:23:34;7.57;;;3.90;;
55641;SDS011;41509;53.108;6.100;2023-11-21T13:26:01;7.28;;;3.80;;
55641;SDS011;41509;53.108;6.100;2023-11-21T13:28:29;7.22;;;4.03;;
55641;SDS011;41509;53.108;6.100;2023-11-21T13:30:58;9.25;;;4.03;;
55641;SDS011;41509;53.108;6.100;2023-11-21T13:33:28;6.43;;;3.42;;
55641;SDS011;41509;53.108;6.100;2023-11-21T13:35:54;7.32;;;4.05;;
55641;SDS011;41509;53.108;6.100;2023-11-21T13:38:21;7.93;;;4.03;;
55641;SDS011;41509;53.108;6.100;2023-11-21T13:40:54;7.80;;;4.22;;
55641;SDS011;41509;53.108;6.100;2023-11-21T13:43:21;8.20;;;4.43;;
55641;SDS011;41509;53.108;6.100;2023-11-21T13:45:50;7.30;;;4.32;;
55641;SDS011;41509;53.108;6.100;2023-11-21T13:48:23;8.60;;;4.13;;
55641;SDS011;41509;53.108;6.100;2023-11-21T13:51:07;6.72;;;4.07;;
55641;SDS011;41509;53.108;6.100;2023-11-21T13:53:42;7.93;;;4.20;;
55641;SDS011;41509;53.108;6.100;2023-11-21T13:56:14;8.25;;;4.40;;
55641;SDS011;41509;53.108;6.100;2023-11-21T13:58:48;7.65;;;3.95;;
55641;SDS011;41509;53.108;6.100;2023-11-21T14:01:19;7.75;;;4.03;;
55641;SDS011;41509;53.108;6.100;2023-11-21T14:04:02;9.77;;;4.38;;
55641;SDS011;41509;53.108;6.100;2023-11-21T14:06:45;6.30;;;3.88;;
55641;SDS011;41509;53.108;6.100;2023-11-21T14:09:20;7.10;;;4.07;;
55641;SDS011;41509;53.108;6.100;2023-11-21T14:11:51;8.40;;;4.30;;
55641;SDS011;41509;53.108;6.100;2023-11-21T14:14:19;8.05;;;4.55;;
55641;SDS011;41509;53.108;6.100;2023-11-21T14:16:45;7.32;;;4.07;;
55641;SDS011;41509;53.108;6.100;2023-11-21T14:19:11;8.73;;;4.17;;
55641;SDS011;41509;53.108;6.100;2023-11-21T14:21:45;9.18;;;4.43;;
55641;SDS011;41509;53.108;6.100;2023-11-21T14:24:11;11.05;;;4.82;;
55641;SDS011;41509;53.108;6.100;2023-11-21T14:26:39;8.32;;;4.68;;
55641;SDS011;41509;53.108;6.100;2023-11-21T14:29:13;10.90;;;4.60;;
55641;SDS011;41509;53.108;6.100;2023-11-21T14:31:44;7.97;;;4.60;;
55641;SDS011;41509;53.108;6.100;2023-11-21T14:34:10;10.63;;;5.13;;
55641;SDS011;41509;53.108;6.100;2023-11-21T14:36:37;8.82;;;4.60;;
55641;SDS011;41509;53.108;6.100;2023-11-21T14:39:06;8.65;;;4.03;;
55641;SDS011;41509;53.108;6.100;2023-11-21T14:41:35;9.57;;;4.53;;
55641;SDS011;41509;53.108;6.100;2023-11-21T14:44:03;7.60;;;4.50;;
55641;SDS011;41509;53.108;6.100;2023-11-21T14:46:29;7.00;;;3.88;;
55641;SDS011;41509;53.108;6.100;2023-11-21T14:48:56;10.40;;;3.80;;
55641;SDS011;41509;53.108;6.100;2023-11-21T14:51:39;9.38;;;4.05;;
55641;SDS011;41509;53.108;6.100;2023-11-21T14:54:25;7.97;;;3.50;;
55641;SDS011;41509;53.108;6.100;2023-11-21T14:57:05;5.55;;;3.25;;
55641;SDS011;41509;53.108;6.100;2023-11-21T14:59:37;9.45;;;4.00;;
55641;SDS011;41509;53.108;6.100;2023-11-21T15:02:08;6.63;;;3.30;;
55641;SDS011;41509;53.108;6.100;2023-11-21T15:04:41;6.78;;;3.38;;
55641;SDS011;41509;53.108;6.100;2023-11-21T15:07:07;6.80;;;3.42;;
55641;SDS011;41509;53.108;6.100;2023-11-21T15:09:33;9.82;;;3.45;;
55641;SDS011;41509;53.108;6.100;2023-11-21T15:11:59;6.43;;;2.63;;
55641;SDS011;41509;53.108;6.100;2023-11-21T15:14:47;10.38;;;3.45;;
55641;SDS011;41509;53.108;6.100;2023-11-21T15:17:17;7.20;;;3.22;;
55641;SDS011;41509;53.108;6.100;2023-11-21T15:19:52;5.85;;;3.15;;
55641;SDS011;41509;53.108;6.100;2023-11-21T15:22:18;5.45;;;2.75;;
55641;SDS011;41509;53.108;6.100;2023-11-21T15:24:44;7.15;;;2.90;;